Crystal City, Missouri
Current Conditions -  °F | °C
As of 9:53 PM on Sunday 25 Jan 2015 (Local Time) from KCPS Reporting Station
Overcast Overcast  
Wind Chill: 22°   Ceiling: 1600
Heat Index: 33°   Visibility: 10mi
Dew Point: 28°   Wind: 20mph
Humidity: 82%   Direction: 340°NNW
Pressure: 29.98"   Gusts: NA
Location:  38.22°N, 90.38°W
Report Text: KCPS 260353Z AUTO 34017KT 10SM OVC016 01/M02 A2998 RMK AO2 SLP154 T00061022 TSNO
Loading
Personal Weather Stations






























Interactive Weather Map New forecast layout! Learn more

10-Day Weather Forecast

Advertisements
Track Severe Weather on mobile